Archival Weather

John F Kennedy Intl

New York, New York (KJFK)

Report from: Friday, February 23, 2024 9:51 AM EST
Current time: Wednesday, April 24, 2024 3:58 PM EDT

Current weather – Weather history – Daily summaries
Weather forecast

Temperature7.2°C (45.0°F)
Wind chill5.1°C (41.2°F)
Dew point5.0°C (41.0°F)
Winds 6 kts (3.1 m/s, 6.9 mph) North-Northwest (340°)
Visibility7 mi. (11.3 km)
Clouds Ceiling: Broken clouds 5,000 ft. (1,524 m)
Overcast 10,000 ft. (3,048 m)
Altimeter29.52 in.Hg (1000 mB)
Relative humidity86 %
Density altitude-344 ft. (-105 m)
Sea-level pressure100.0 kPa (1000 mB, 29.52 in.Hg)
Remarks Automated weather observing station with precipitation discriminator
Pressure falling more quickly
Flight conditions Visual Meteorological Conditions
Raw dataKJFK 231451Z 34006KT 7SM BKN050 OVC100 07/05 A2952 RMK AO2 SLP996 T00720050 58004
An error has occurred. This application may no longer respond until reloaded. Reload 🗙